sensor_id;sensor_type;location;lat;lon;timestamp;temperature;humidity
5508;DHT22;2776;51.046;6.772;2023-03-16T00:00:56;2.60;99.90
5508;DHT22;2776;51.046;6.772;2023-03-16T00:03:23;2.70;99.90
5508;DHT22;2776;51.046;6.772;2023-03-16T00:05:52;2.60;99.90
5508;DHT22;2776;51.046;6.772;2023-03-16T00:08:19;2.60;99.90
5508;DHT22;2776;51.046;6.772;2023-03-16T00:10:46;2.60;99.90
5508;DHT22;2776;51.046;6.772;2023-03-16T00:13:13;2.70;99.90
5508;DHT22;2776;51.046;6.772;2023-03-16T00:15:49;2.70;99.90
5508;DHT22;2776;51.046;6.772;2023-03-16T00:18:16;2.70;99.90
5508;DHT22;2776;51.046;6.772;2023-03-16T00:20:43;2.70;99.90
5508;DHT22;2776;51.046;6.772;2023-03-16T00:23:10;2.60;99.90
5508;DHT22;2776;51.046;6.772;2023-03-16T00:25:36;2.70;99.90
5508;DHT22;2776;51.046;6.772;2023-03-16T00:28:03;2.70;99.90
5508;DHT22;2776;51.046;6.772;2023-03-16T00:30:30;2.70;99.90
5508;DHT22;2776;51.046;6.772;2023-03-16T00:32:58;2.60;99.90
5508;DHT22;2776;51.046;6.772;2023-03-16T00:35:26;2.60;99.90
5508;DHT22;2776;51.046;6.772;2023-03-16T00:37:53;2.60;99.90
5508;DHT22;2776;51.046;6.772;2023-03-16T00:40:22;2.70;99.90
5508;DHT22;2776;51.046;6.772;2023-03-16T00:42:48;2.70;99.90
5508;DHT22;2776;51.046;6.772;2023-03-16T00:45:15;2.70;99.90
5508;DHT22;2776;51.046;6.772;2023-03-16T00:47:42;2.70;99.90
5508;DHT22;2776;51.046;6.772;2023-03-16T00:50:10;2.70;99.90
5508;DHT22;2776;51.046;6.772;2023-03-16T00:52:37;2.70;99.90
5508;DHT22;2776;51.046;6.772;2023-03-16T00:55:05;2.80;99.90
5508;DHT22;2776;51.046;6.772;2023-03-16T00:57:33;2.70;99.90
5508;DHT22;2776;51.046;6.772;2023-03-16T00:59:59;2.80;99.90
5508;DHT22;2776;51.046;6.772;2023-03-16T01:02:34;2.80;99.90
5508;DHT22;2776;51.046;6.772;2023-03-16T01:05:01;2.80;99.90
5508;DHT22;2776;51.046;6.772;2023-03-16T01:07:31;2.90;99.90
5508;DHT22;2776;51.046;6.772;2023-03-16T01:10:00;2.90;99.90
5508;DHT22;2776;51.046;6.772;2023-03-16T01:12:27;2.90;99.90
5508;DHT22;2776;51.046;6.772;2023-03-16T01:14:54;2.90;99.90
5508;DHT22;2776;51.046;6.772;2023-03-16T01:17:21;2.90;99.90
5508;DHT22;2776;51.046;6.772;2023-03-16T01:19:48;2.90;99.90
5508;DHT22;2776;51.046;6.772;2023-03-16T01:22:16;3.00;99.90
5508;DHT22;2776;51.046;6.772;2023-03-16T01:24:45;3.00;99.90
5508;DHT22;2776;51.046;6.772;2023-03-16T01:27:12;2.90;99.90
5508;DHT22;2776;51.046;6.772;2023-03-16T01:29:40;2.90;99.90
5508;DHT22;2776;51.046;6.772;2023-03-16T01:32:08;3.00;99.90
5508;DHT22;2776;51.046;6.772;2023-03-16T01:34:35;3.00;99.90
5508;DHT22;2776;51.046;6.772;2023-03-16T01:37:01;3.10;99.90
5508;DHT22;2776;51.046;6.772;2023-03-16T01:39:28;3.10;99.90
5508;DHT22;2776;51.046;6.772;2023-03-16T01:41:56;3.20;99.90
5508;DHT22;2776;51.046;6.772;2023-03-16T01:44:24;3.10;99.90
5508;DHT22;2776;51.046;6.772;2023-03-16T01:46:54;3.10;99.90
5508;DHT22;2776;51.046;6.772;2023-03-16T01:49:24;3.10;99.90
5508;DHT22;2776;51.046;6.772;2023-03-16T01:51:56;3.10;99.90
5508;DHT22;2776;51.046;6.772;2023-03-16T01:54:26;3.10;99.90
5508;DHT22;2776;51.046;6.772;2023-03-16T01:57:00;3.10;99.90
5508;DHT22;2776;51.046;6.772;2023-03-16T01:59:35;3.10;99.90
5508;DHT22;2776;51.046;6.772;2023-03-16T02:02:04;3.10;99.90
5508;DHT22;2776;51.046;6.772;2023-03-16T02:04:41;3.20;99.90
5508;DHT22;2776;51.046;6.772;2023-03-16T02:07:09;3.20;99.90
5508;DHT22;2776;51.046;6.772;2023-03-16T02:09:39;3.20;99.90
5508;DHT22;2776;51.046;6.772;2023-03-16T02:12:11;3.20;99.90
5508;DHT22;2776;51.046;6.772;2023-03-16T02:14:42;3.20;99.90
5508;DHT22;2776;51.046;6.772;2023-03-16T02:17:10;3.10;99.90
5508;DHT22;2776;51.046;6.772;2023-03-16T02:19:43;3.20;99.90
5508;DHT22;2776;51.046;6.772;2023-03-16T02:22:13;3.20;99.90
5508;DHT22;2776;51.046;6.772;2023-03-16T02:24:40;3.20;99.90
5508;DHT22;2776;51.046;6.772;2023-03-16T02:27:10;3.10;99.90
5508;DHT22;2776;51.046;6.772;2023-03-16T02:29:59;3.10;99.90
5508;DHT22;2776;51.046;6.772;2023-03-16T02:32:29;3.10;99.90
5508;DHT22;2776;51.046;6.772;2023-03-16T02:34:58;3.10;99.90
5508;DHT22;2776;51.046;6.772;2023-03-16T02:37:27;3.10;99.90
5508;DHT22;2776;51.046;6.772;2023-03-16T02:39:54;3.10;99.90
5508;DHT22;2776;51.046;6.772;2023-03-16T02:42:22;3.00;99.90
5508;DHT22;2776;51.046;6.772;2023-03-16T02:44:53;3.00;99.90
5508;DHT22;2776;51.046;6.772;2023-03-16T02:47:28;3.00;99.90
5508;DHT22;2776;51.046;6.772;2023-03-16T02:49:56;3.00;99.90
5508;DHT22;2776;51.046;6.772;2023-03-16T02:52:22;2.90;99.90
5508;DHT22;2776;51.046;6.772;2023-03-16T02:54:49;3.00;99.90
5508;DHT22;2776;51.046;6.772;2023-03-16T02:57:16;3.00;99.90
5508;DHT22;2776;51.046;6.772;2023-03-16T02:59:43;3.10;99.90
5508;DHT22;2776;51.046;6.772;2023-03-16T03:02:09;3.10;99.90
5508;DHT22;2776;51.046;6.772;2023-03-16T03:04:38;3.10;99.90
5508;DHT22;2776;51.046;6.772;2023-03-16T03:07:05;3.20;99.90
5508;DHT22;2776;51.046;6.772;2023-03-16T03:09:31;3.10;99.90
5508;DHT22;2776;51.046;6.772;2023-03-16T03:11:58;3.20;99.90
5508;DHT22;2776;51.046;6.772;2023-03-16T03:14:25;3.20;99.90
5508;DHT22;2776;51.046;6.772;2023-03-16T03:16:53;3.20;99.90
5508;DHT22;2776;51.046;6.772;2023-03-16T03:19:20;3.10;99.90
5508;DHT22;2776;51.046;6.772;2023-03-16T03:21:49;3.20;99.90
5508;DHT22;2776;51.046;6.772;2023-03-16T03:24:16;3.20;99.90
5508;DHT22;2776;51.046;6.772;2023-03-16T03:26:43;3.20;99.90
5508;DHT22;2776;51.046;6.772;2023-03-16T03:29:10;3.20;99.90
5508;DHT22;2776;51.046;6.772;2023-03-16T03:31:37;3.20;99.90
5508;DHT22;2776;51.046;6.772;2023-03-16T03:34:04;3.20;99.90
5508;DHT22;2776;51.046;6.772;2023-03-16T03:36:31;3.20;99.90
5508;DHT22;2776;51.046;6.772;2023-03-16T03:39:00;3.20;99.90
5508;DHT22;2776;51.046;6.772;2023-03-16T03:41:30;3.20;99.90
5508;DHT22;2776;51.046;6.772;2023-03-16T03:43:57;3.20;99.90
5508;DHT22;2776;51.046;6.772;2023-03-16T03:46:25;3.10;99.90
5508;DHT22;2776;51.046;6.772;2023-03-16T03:48:52;3.10;99.90
5508;DHT22;2776;51.046;6.772;2023-03-16T03:51:18;3.10;99.90
5508;DHT22;2776;51.046;6.772;2023-03-16T03:53:46;3.20;99.90
5508;DHT22;2776;51.046;6.772;2023-03-16T03:56:14;3.20;99.90
5508;DHT22;2776;51.046;6.772;2023-03-16T03:58:40;3.20;99.90
5508;DHT22;2776;51.046;6.772;2023-03-16T04:01:07;3.20;99.90
5508;DHT22;2776;51.046;6.772;2023-03-16T04:03:34;3.20;99.90
5508;DHT22;2776;51.046;6.772;2023-03-16T04:06:01;3.20;99.90
5508;DHT22;2776;51.046;6.772;2023-03-16T04:08:28;3.20;99.90
5508;DHT22;2776;51.046;6.772;2023-03-16T04:10:54;3.20;99.90
5508;DHT22;2776;51.046;6.772;2023-03-16T04:13:23;3.20;99.90
5508;DHT22;2776;51.046;6.772;2023-03-16T04:15:55;3.20;99.90
5508;DHT22;2776;51.046;6.772;2023-03-16T04:18:22;3.30;99.90
5508;DHT22;2776;51.046;6.772;2023-03-16T04:20:49;3.30;99.90
5508;DHT22;2776;51.046;6.772;2023-03-16T04:23:17;3.30;99.90
5508;DHT22;2776;51.046;6.772;2023-03-16T04:25:44;3.30;99.90
5508;DHT22;2776;51.046;6.772;2023-03-16T04:28:11;3.30;99.90
5508;DHT22;2776;51.046;6.772;2023-03-16T04:30:39;3.20;99.90
5508;DHT22;2776;51.046;6.772;2023-03-16T04:33:07;3.30;99.90
5508;DHT22;2776;51.046;6.772;2023-03-16T04:35:34;3.20;99.90
5508;DHT22;2776;51.046;6.772;2023-03-16T04:38:00;3.30;99.90
5508;DHT22;2776;51.046;6.772;2023-03-16T04:40:27;3.30;99.90
5508;DHT22;2776;51.046;6.772;2023-03-16T04:42:54;3.30;99.90
5508;DHT22;2776;51.046;6.772;2023-03-16T04:45:21;3.30;99.90
5508;DHT22;2776;51.046;6.772;2023-03-16T04:47:50;3.30;99.90
5508;DHT22;2776;51.046;6.772;2023-03-16T04:50:16;3.30;99.90
5508;DHT22;2776;51.046;6.772;2023-03-16T04:52:43;3.30;99.90
5508;DHT22;2776;51.046;6.772;2023-03-16T04:55:10;3.40;99.90
5508;DHT22;2776;51.046;6.772;2023-03-16T04:57:37;3.40;99.90
5508;DHT22;2776;51.046;6.772;2023-03-16T05:00:05;3.40;99.90
5508;DHT22;2776;51.046;6.772;2023-03-16T05:02:36;3.40;99.90
5508;DHT22;2776;51.046;6.772;2023-03-16T05:05:05;3.40;99.90
5508;DHT22;2776;51.046;6.772;2023-03-16T05:07:31;3.40;99.90
5508;DHT22;2776;51.046;6.772;2023-03-16T05:09:58;3.40;99.90
5508;DHT22;2776;51.046;6.772;2023-03-16T05:12:25;3.40;99.90
5508;DHT22;2776;51.046;6.772;2023-03-16T05:14:52;3.50;99.90
5508;DHT22;2776;51.046;6.772;2023-03-16T05:17:18;3.40;99.90
5508;DHT22;2776;51.046;6.772;2023-03-16T05:19:46;3.40;99.90
5508;DHT22;2776;51.046;6.772;2023-03-16T05:22:14;3.40;99.90
5508;DHT22;2776;51.046;6.772;2023-03-16T05:24:41;3.40;99.90
5508;DHT22;2776;51.046;6.772;2023-03-16T05:27:08;3.50;99.90
5508;DHT22;2776;51.046;6.772;2023-03-16T05:29:35;3.50;99.90
5508;DHT22;2776;51.046;6.772;2023-03-16T05:32:01;3.60;99.90
5508;DHT22;2776;51.046;6.772;2023-03-16T05:34:28;3.60;99.90
5508;DHT22;2776;51.046;6.772;2023-03-16T05:36:56;3.60;99.90
5508;DHT22;2776;51.046;6.772;2023-03-16T05:39:24;3.70;99.90
5508;DHT22;2776;51.046;6.772;2023-03-16T05:41:50;3.70;99.90
5508;DHT22;2776;51.046;6.772;2023-03-16T05:44:19;3.80;99.90
5508;DHT22;2776;51.046;6.772;2023-03-16T05:46:46;3.80;99.90
5508;DHT22;2776;51.046;6.772;2023-03-16T05:49:12;3.80;99.90
5508;DHT22;2776;51.046;6.772;2023-03-16T05:51:40;3.80;99.90
5508;DHT22;2776;51.046;6.772;2023-03-16T05:54:07;3.80;99.90
5508;DHT22;2776;51.046;6.772;2023-03-16T05:56:35;3.90;99.90
5508;DHT22;2776;51.046;6.772;2023-03-16T05:59:02;3.90;99.90
5508;DHT22;2776;51.046;6.772;2023-03-16T06:01:28;3.80;99.90
5508;DHT22;2776;51.046;6.772;2023-03-16T06:03:55;3.80;99.90
5508;DHT22;2776;51.046;6.772;2023-03-16T06:06:22;3.80;99.90
5508;DHT22;2776;51.046;6.772;2023-03-16T06:08:49;3.90;99.90
5508;DHT22;2776;51.046;6.772;2023-03-16T06:11:16;3.80;99.90
5508;DHT22;2776;51.046;6.772;2023-03-16T06:13:44;3.90;99.90
5508;DHT22;2776;51.046;6.772;2023-03-16T06:16:11;4.00;99.90
5508;DHT22;2776;51.046;6.772;2023-03-16T06:18:39;4.00;99.90
5508;DHT22;2776;51.046;6.772;2023-03-16T06:21:06;4.00;99.90
5508;DHT22;2776;51.046;6.772;2023-03-16T06:23:33;4.10;99.90
5508;DHT22;2776;51.046;6.772;2023-03-16T06:26:00;4.10;99.90
5508;DHT22;2776;51.046;6.772;2023-03-16T06:28:27;4.20;99.90
5508;DHT22;2776;51.046;6.772;2023-03-16T06:30:56;4.30;99.90
5508;DHT22;2776;51.046;6.772;2023-03-16T06:33:23;4.30;99.90
5508;DHT22;2776;51.046;6.772;2023-03-16T06:35:50;4.40;99.90
5508;DHT22;2776;51.046;6.772;2023-03-16T06:38:17;4.40;99.90
5508;DHT22;2776;51.046;6.772;2023-03-16T06:40:44;4.50;99.90
5508;DHT22;2776;51.046;6.772;2023-03-16T06:43:11;4.50;99.90
5508;DHT22;2776;51.046;6.772;2023-03-16T06:45:38;4.50;99.90
5508;DHT22;2776;51.046;6.772;2023-03-16T06:48:07;4.50;99.90
5508;DHT22;2776;51.046;6.772;2023-03-16T06:50:34;4.50;99.90
5508;DHT22;2776;51.046;6.772;2023-03-16T06:53:01;4.60;99.90
5508;DHT22;2776;51.046;6.772;2023-03-16T06:55:28;4.60;99.90
5508;DHT22;2776;51.046;6.772;2023-03-16T06:57:54;4.60;99.90
5508;DHT22;2776;51.046;6.772;2023-03-16T07:00:22;4.60;99.90
5508;DHT22;2776;51.046;6.772;2023-03-16T07:02:49;4.60;99.90
5508;DHT22;2776;51.046;6.772;2023-03-16T07:05:17;4.60;99.90
5508;DHT22;2776;51.046;6.772;2023-03-16T07:07:43;4.60;99.90
5508;DHT22;2776;51.046;6.772;2023-03-16T07:10:12;4.60;99.90
5508;DHT22;2776;51.046;6.772;2023-03-16T07:12:39;4.80;99.90
5508;DHT22;2776;51.046;6.772;2023-03-16T07:15:07;4.90;99.90
5508;DHT22;2776;51.046;6.772;2023-03-16T07:17:34;5.00;99.90
5508;DHT22;2776;51.046;6.772;2023-03-16T07:20:00;5.00;99.90
5508;DHT22;2776;51.046;6.772;2023-03-16T07:22:31;4.90;99.90
5508;DHT22;2776;51.046;6.772;2023-03-16T07:24:58;5.00;99.90
5508;DHT22;2776;51.046;6.772;2023-03-16T07:27:25;5.10;99.90
5508;DHT22;2776;51.046;6.772;2023-03-16T07:29:53;5.10;99.90
5508;DHT22;2776;51.046;6.772;2023-03-16T07:32:20;5.20;99.90
5508;DHT22;2776;51.046;6.772;2023-03-16T07:34:47;5.30;99.90
5508;DHT22;2776;51.046;6.772;2023-03-16T07:37:14;5.40;99.90
5508;DHT22;2776;51.046;6.772;2023-03-16T07:39:42;5.60;99.90
5508;DHT22;2776;51.046;6.772;2023-03-16T07:42:09;5.70;99.90
5508;DHT22;2776;51.046;6.772;2023-03-16T07:44:36;5.70;99.90
5508;DHT22;2776;51.046;6.772;2023-03-16T07:47:03;5.80;99.90
5508;DHT22;2776;51.046;6.772;2023-03-16T07:49:31;6.00;99.90
5508;DHT22;2776;51.046;6.772;2023-03-16T07:51:58;6.10;99.90
5508;DHT22;2776;51.046;6.772;2023-03-16T07:54:25;6.30;99.90
5508;DHT22;2776;51.046;6.772;2023-03-16T07:56:53;6.30;99.90
5508;DHT22;2776;51.046;6.772;2023-03-16T07:59:19;6.40;99.90
5508;DHT22;2776;51.046;6.772;2023-03-16T08:01:46;6.40;99.90
5508;DHT22;2776;51.046;6.772;2023-03-16T08:04:13;6.50;99.90
5508;DHT22;2776;51.046;6.772;2023-03-16T08:06:40;6.40;99.90
5508;DHT22;2776;51.046;6.772;2023-03-16T08:09:08;6.50;99.90
5508;DHT22;2776;51.046;6.772;2023-03-16T08:11:35;6.50;99.90
5508;DHT22;2776;51.046;6.772;2023-03-16T08:14:03;6.50;99.90
5508;DHT22;2776;51.046;6.772;2023-03-16T08:16:30;6.60;99.90
5508;DHT22;2776;51.046;6.772;2023-03-16T08:18:57;6.50;99.90
5508;DHT22;2776;51.046;6.772;2023-03-16T08:21:24;6.70;99.90
5508;DHT22;2776;51.046;6.772;2023-03-16T08:23:51;6.60;99.90
5508;DHT22;2776;51.046;6.772;2023-03-16T08:26:18;6.60;99.90
5508;DHT22;2776;51.046;6.772;2023-03-16T08:28:46;6.60;99.90
5508;DHT22;2776;51.046;6.772;2023-03-16T08:31:18;6.70;99.90
5508;DHT22;2776;51.046;6.772;2023-03-16T08:33:46;6.90;99.90
5508;DHT22;2776;51.046;6.772;2023-03-16T08:36:15;6.90;99.90
5508;DHT22;2776;51.046;6.772;2023-03-16T08:38:43;6.90;99.90
5508;DHT22;2776;51.046;6.772;2023-03-16T08:41:11;7.00;99.90
5508;DHT22;2776;51.046;6.772;2023-03-16T08:43:41;7.10;99.90
5508;DHT22;2776;51.046;6.772;2023-03-16T08:46:09;7.10;99.90
5508;DHT22;2776;51.046;6.772;2023-03-16T08:48:37;7.10;99.90
5508;DHT22;2776;51.046;6.772;2023-03-16T08:51:05;7.10;99.90
5508;DHT22;2776;51.046;6.772;2023-03-16T08:53:31;7.10;99.90
5508;DHT22;2776;51.046;6.772;2023-03-16T08:56:03;7.10;99.90
5508;DHT22;2776;51.046;6.772;2023-03-16T08:58:30;7.00;99.90
5508;DHT22;2776;51.046;6.772;2023-03-16T09:00:58;7.00;99.90
5508;DHT22;2776;51.046;6.772;2023-03-16T09:03:25;7.10;99.90
5508;DHT22;2776;51.046;6.772;2023-03-16T09:06:00;7.20;99.90
5508;DHT22;2776;51.046;6.772;2023-03-16T09:08:27;7.20;99.90
5508;DHT22;2776;51.046;6.772;2023-03-16T09:10:58;7.30;99.90
5508;DHT22;2776;51.046;6.772;2023-03-16T09:13:26;7.40;99.90
5508;DHT22;2776;51.046;6.772;2023-03-16T09:15:53;7.40;99.90
5508;DHT22;2776;51.046;6.772;2023-03-16T09:18:19;7.50;99.90
5508;DHT22;2776;51.046;6.772;2023-03-16T09:20:47;7.50;99.90
5508;DHT22;2776;51.046;6.772;2023-03-16T09:23:16;7.70;99.90
5508;DHT22;2776;51.046;6.772;2023-03-16T09:25:43;8.00;99.90
5508;DHT22;2776;51.046;6.772;2023-03-16T09:28:10;8.10;99.90
5508;DHT22;2776;51.046;6.772;2023-03-16T09:30:36;8.30;99.90
5508;DHT22;2776;51.046;6.772;2023-03-16T09:33:04;8.40;99.90
5508;DHT22;2776;51.046;6.772;2023-03-16T09:35:30;8.60;99.90
5508;DHT22;2776;51.046;6.772;2023-03-16T09:37:57;8.80;99.90
5508;DHT22;2776;51.046;6.772;2023-03-16T09:40:27;9.00;99.90
5508;DHT22;2776;51.046;6.772;2023-03-16T09:43:08;9.10;99.90
5508;DHT22;2776;51.046;6.772;2023-03-16T09:45:40;9.30;99.90
5508;DHT22;2776;51.046;6.772;2023-03-16T09:48:11;9.40;99.90
5508;DHT22;2776;51.046;6.772;2023-03-16T09:50:39;9.40;99.90
5508;DHT22;2776;51.046;6.772;2023-03-16T09:53:14;9.20;99.90
5508;DHT22;2776;51.046;6.772;2023-03-16T09:55:48;9.20;99.90
5508;DHT22;2776;51.046;6.772;2023-03-16T09:58:19;9.10;99.90
5508;DHT22;2776;51.046;6.772;2023-03-16T10:00:54;9.00;99.90
5508;DHT22;2776;51.046;6.772;2023-03-16T10:03:31;8.90;99.90
5508;DHT22;2776;51.046;6.772;2023-03-16T10:06:02;9.00;99.90
5508;DHT22;2776;51.046;6.772;2023-03-16T10:08:33;8.90;99.90
5508;DHT22;2776;51.046;6.772;2023-03-16T10:11:14;8.90;99.90
5508;DHT22;2776;51.046;6.772;2023-03-16T10:13:46;8.90;99.90
5508;DHT22;2776;51.046;6.772;2023-03-16T10:16:16;8.80;99.90
5508;DHT22;2776;51.046;6.772;2023-03-16T10:18:45;8.90;99.90
5508;DHT22;2776;51.046;6.772;2023-03-16T10:21:15;8.80;99.90
5508;DHT22;2776;51.046;6.772;2023-03-16T10:23:43;8.90;99.90
5508;DHT22;2776;51.046;6.772;2023-03-16T10:26:16;8.90;99.90
5508;DHT22;2776;51.046;6.772;2023-03-16T10:28:44;9.00;99.90
5508;DHT22;2776;51.046;6.772;2023-03-16T10:31:11;9.10;99.90
5508;DHT22;2776;51.046;6.772;2023-03-16T10:33:39;9.30;99.90
5508;DHT22;2776;51.046;6.772;2023-03-16T10:36:13;9.40;99.90
5508;DHT22;2776;51.046;6.772;2023-03-16T10:38:42;9.40;99.90
5508;DHT22;2776;51.046;6.772;2023-03-16T10:41:21;9.40;99.90
5508;DHT22;2776;51.046;6.772;2023-03-16T10:43:51;9.40;99.90
5508;DHT22;2776;51.046;6.772;2023-03-16T10:46:20;9.50;99.90
5508;DHT22;2776;51.046;6.772;2023-03-16T10:48:54;9.50;99.90
5508;DHT22;2776;51.046;6.772;2023-03-16T10:51:26;9.60;99.90
5508;DHT22;2776;51.046;6.772;2023-03-16T10:53:59;9.80;99.90
5508;DHT22;2776;51.046;6.772;2023-03-16T10:56:33;9.90;99.90
5508;DHT22;2776;51.046;6.772;2023-03-16T10:59:12;9.80;99.90
5508;DHT22;2776;51.046;6.772;2023-03-16T11:01:44;9.80;99.90
5508;DHT22;2776;51.046;6.772;2023-03-16T11:04:13;9.80;99.90
5508;DHT22;2776;51.046;6.772;2023-03-16T11:06:48;9.80;99.90
5508;DHT22;2776;51.046;6.772;2023-03-16T11:09:20;10.10;99.90
5508;DHT22;2776;51.046;6.772;2023-03-16T11:11:50;10.40;99.90
5508;DHT22;2776;51.046;6.772;2023-03-16T11:14:20;10.50;99.90
5508;DHT22;2776;51.046;6.772;2023-03-16T11:16:50;10.50;99.90
5508;DHT22;2776;51.046;6.772;2023-03-16T11:19:22;10.40;99.90
5508;DHT22;2776;51.046;6.772;2023-03-16T11:21:55;10.60;99.90
5508;DHT22;2776;51.046;6.772;2023-03-16T11:24:28;10.70;99.90
5508;DHT22;2776;51.046;6.772;2023-03-16T11:27:00;10.70;99.90
5508;DHT22;2776;51.046;6.772;2023-03-16T11:29:40;10.60;99.90
5508;DHT22;2776;51.046;6.772;2023-03-16T11:32:12;10.50;99.90
5508;DHT22;2776;51.046;6.772;2023-03-16T11:34:40;10.50;99.90
5508;DHT22;2776;51.046;6.772;2023-03-16T11:37:13;10.50;99.90
5508;DHT22;2776;51.046;6.772;2023-03-16T11:39:54;10.60;99.90
5508;DHT22;2776;51.046;6.772;2023-03-16T11:42:31;10.60;99.90
5508;DHT22;2776;51.046;6.772;2023-03-16T11:45:05;10.60;99.90
5508;DHT22;2776;51.046;6.772;2023-03-16T11:48:02;10.70;99.90
5508;DHT22;2776;51.046;6.772;2023-03-16T11:50:36;10.80;99.90
5508;DHT22;2776;51.046;6.772;2023-03-16T11:53:13;10.90;99.90
5508;DHT22;2776;51.046;6.772;2023-03-16T11:55:49;10.80;99.90
5508;DHT22;2776;51.046;6.772;2023-03-16T11:58:28;10.90;99.90
5508;DHT22;2776;51.046;6.772;2023-03-16T12:01:02;11.00;99.90
5508;DHT22;2776;51.046;6.772;2023-03-16T12:03:41;11.00;99.60
5508;DHT22;2776;51.046;6.772;2023-03-16T12:06:18;11.00;99.90
5508;DHT22;2776;51.046;6.772;2023-03-16T12:11:52;11.00;98.30
5508;DHT22;2776;51.046;6.772;2023-03-16T12:14:23;10.90;98.50
5508;DHT22;2776;51.046;6.772;2023-03-16T12:16:56;11.00;99.60
5508;DHT22;2776;51.046;6.772;2023-03-16T12:19:30;11.10;99.00
5508;DHT22;2776;51.046;6.772;2023-03-16T12:22:05;11.10;97.80
5508;DHT22;2776;51.046;6.772;2023-03-16T12:24:37;11.30;98.10
5508;DHT22;2776;51.046;6.772;2023-03-16T12:27:12;11.30;97.50
5508;DHT22;2776;51.046;6.772;2023-03-16T12:29:51;11.40;98.10
5508;DHT22;2776;51.046;6.772;2023-03-16T12:32:28;11.60;95.30
5508;DHT22;2776;51.046;6.772;2023-03-16T12:35:02;11.70;96.00
5508;DHT22;2776;51.046;6.772;2023-03-16T12:37:35;11.70;95.40
5508;DHT22;2776;51.046;6.772;2023-03-16T12:40:22;11.70;95.50
5508;DHT22;2776;51.046;6.772;2023-03-16T12:42:59;11.80;97.00
5508;DHT22;2776;51.046;6.772;2023-03-16T12:45:37;11.90;97.00
5508;DHT22;2776;51.046;6.772;2023-03-16T12:48:13;12.00;95.80
5508;DHT22;2776;51.046;6.772;2023-03-16T12:50:50;12.00;96.00
5508;DHT22;2776;51.046;6.772;2023-03-16T12:53:28;12.10;95.20
5508;DHT22;2776;51.046;6.772;2023-03-16T12:56:05;12.10;94.70
5508;DHT22;2776;51.046;6.772;2023-03-16T12:58:33;12.20;93.60
5508;DHT22;2776;51.046;6.772;2023-03-16T13:01:01;12.30;94.30
5508;DHT22;2776;51.046;6.772;2023-03-16T13:03:34;12.50;94.40
5508;DHT22;2776;51.046;6.772;2023-03-16T13:06:01;12.40;93.50
5508;DHT22;2776;51.046;6.772;2023-03-16T13:08:39;12.30;92.20
5508;DHT22;2776;51.046;6.772;2023-03-16T13:11:08;12.30;92.20
5508;DHT22;2776;51.046;6.772;2023-03-16T13:13:46;12.20;90.90
5508;DHT22;2776;51.046;6.772;2023-03-16T13:16:25;12.20;92.80
5508;DHT22;2776;51.046;6.772;2023-03-16T13:18:53;12.30;93.00
5508;DHT22;2776;51.046;6.772;2023-03-16T13:21:21;12.30;91.60
5508;DHT22;2776;51.046;6.772;2023-03-16T13:23:54;12.20;91.80
5508;DHT22;2776;51.046;6.772;2023-03-16T13:26:31;12.20;94.00
5508;DHT22;2776;51.046;6.772;2023-03-16T13:29:07;12.20;91.90
5508;DHT22;2776;51.046;6.772;2023-03-16T13:31:41;12.30;93.30
5508;DHT22;2776;51.046;6.772;2023-03-16T13:34:13;12.30;91.00
5508;DHT22;2776;51.046;6.772;2023-03-16T13:36:43;12.30;92.30
5508;DHT22;2776;51.046;6.772;2023-03-16T13:39:15;12.40;93.10
5508;DHT22;2776;51.046;6.772;2023-03-16T13:41:54;12.40;94.50
5508;DHT22;2776;51.046;6.772;2023-03-16T13:44:22;12.40;92.30
5508;DHT22;2776;51.046;6.772;2023-03-16T13:46:51;12.40;93.50
5508;DHT22;2776;51.046;6.772;2023-03-16T13:49:18;12.40;92.10
5508;DHT22;2776;51.046;6.772;2023-03-16T13:51:46;12.30;90.40
5508;DHT22;2776;51.046;6.772;2023-03-16T13:54:21;12.30;91.90
5508;DHT22;2776;51.046;6.772;2023-03-16T13:56:49;12.30;91.90
5508;DHT22;2776;51.046;6.772;2023-03-16T13:59:17;12.30;90.50
5508;DHT22;2776;51.046;6.772;2023-03-16T14:01:45;12.20;90.50
5508;DHT22;2776;51.046;6.772;2023-03-16T14:04:15;12.30;90.50
5508;DHT22;2776;51.046;6.772;2023-03-16T14:06:55;12.30;89.50
5508;DHT22;2776;51.046;6.772;2023-03-16T14:09:25;12.40;88.80
5508;DHT22;2776;51.046;6.772;2023-03-16T14:11:53;12.30;88.40
5508;DHT22;2776;51.046;6.772;2023-03-16T14:14:24;12.30;89.40
5508;DHT22;2776;51.046;6.772;2023-03-16T14:16:52;12.20;88.20
5508;DHT22;2776;51.046;6.772;2023-03-16T14:19:23;12.20;90.30
5508;DHT22;2776;51.046;6.772;2023-03-16T14:22:00;12.10;87.70
5508;DHT22;2776;51.046;6.772;2023-03-16T14:24:32;12.20;87.70
5508;DHT22;2776;51.046;6.772;2023-03-16T14:27:14;12.20;90.20
5508;DHT22;2776;51.046;6.772;2023-03-16T14:29:43;12.30;90.30
5508;DHT22;2776;51.046;6.772;2023-03-16T14:32:20;12.40;91.00
5508;DHT22;2776;51.046;6.772;2023-03-16T14:34:49;12.40;90.30
5508;DHT22;2776;51.046;6.772;2023-03-16T14:37:16;12.40;85.20
5508;DHT22;2776;51.046;6.772;2023-03-16T14:39:44;12.30;86.00
5508;DHT22;2776;51.046;6.772;2023-03-16T14:42:14;12.30;87.70
5508;DHT22;2776;51.046;6.772;2023-03-16T14:44:44;12.40;88.10
5508;DHT22;2776;51.046;6.772;2023-03-16T14:47:18;12.40;91.10
5508;DHT22;2776;51.046;6.772;2023-03-16T14:49:46;12.40;87.40
5508;DHT22;2776;51.046;6.772;2023-03-16T14:52:21;12.50;89.90
5508;DHT22;2776;51.046;6.772;2023-03-16T14:54:49;12.50;90.70
5508;DHT22;2776;51.046;6.772;2023-03-16T14:57:16;12.50;89.10
5508;DHT22;2776;51.046;6.772;2023-03-16T14:59:44;12.40;87.20
5508;DHT22;2776;51.046;6.772;2023-03-16T15:02:15;12.40;90.00
5508;DHT22;2776;51.046;6.772;2023-03-16T15:04:42;12.40;87.00
5508;DHT22;2776;51.046;6.772;2023-03-16T15:07:21;12.50;87.80
5508;DHT22;2776;51.046;6.772;2023-03-16T15:09:50;12.50;86.50
5508;DHT22;2776;51.046;6.772;2023-03-16T15:12:18;12.50;89.50
5508;DHT22;2776;51.046;6.772;2023-03-16T15:14:46;12.50;90.70
5508;DHT22;2776;51.046;6.772;2023-03-16T15:17:31;12.50;88.30
5508;DHT22;2776;51.046;6.772;2023-03-16T15:19:58;12.50;85.10
5508;DHT22;2776;51.046;6.772;2023-03-16T15:22:29;12.40;86.70
5508;DHT22;2776;51.046;6.772;2023-03-16T15:24:56;12.50;87.80
5508;DHT22;2776;51.046;6.772;2023-03-16T15:27:27;12.40;84.60
5508;DHT22;2776;51.046;6.772;2023-03-16T15:29:56;12.40;85.60
5508;DHT22;2776;51.046;6.772;2023-03-16T15:32:23;12.30;86.40
5508;DHT22;2776;51.046;6.772;2023-03-16T15:34:50;12.20;85.70
5508;DHT22;2776;51.046;6.772;2023-03-16T15:37:17;12.20;84.10
5508;DHT22;2776;51.046;6.772;2023-03-16T15:39:48;12.20;85.50
5508;DHT22;2776;51.046;6.772;2023-03-16T15:42:17;12.20;86.90
5508;DHT22;2776;51.046;6.772;2023-03-16T15:44:45;12.20;85.80
5508;DHT22;2776;51.046;6.772;2023-03-16T15:47:13;12.10;86.10
5508;DHT22;2776;51.046;6.772;2023-03-16T15:49:40;12.20;89.30
5508;DHT22;2776;51.046;6.772;2023-03-16T15:52:20;12.20;89.40
5508;DHT22;2776;51.046;6.772;2023-03-16T15:54:48;12.20;88.20
5508;DHT22;2776;51.046;6.772;2023-03-16T15:57:16;12.10;90.70
5508;DHT22;2776;51.046;6.772;2023-03-16T15:59:43;12.00;88.10
5508;DHT22;2776;51.046;6.772;2023-03-16T16:02:24;12.00;89.90
5508;DHT22;2776;51.046;6.772;2023-03-16T16:04:51;11.90;89.00
5508;DHT22;2776;51.046;6.772;2023-03-16T16:07:18;11.90;90.00
5508;DHT22;2776;51.046;6.772;2023-03-16T16:09:45;11.80;90.50
5508;DHT22;2776;51.046;6.772;2023-03-16T16:12:14;11.80;90.20
5508;DHT22;2776;51.046;6.772;2023-03-16T16:14:42;11.80;90.10
5508;DHT22;2776;51.046;6.772;2023-03-16T16:17:10;11.70;91.60
5508;DHT22;2776;51.046;6.772;2023-03-16T16:19:38;11.70;92.90
5508;DHT22;2776;51.046;6.772;2023-03-16T16:22:07;11.70;92.40
5508;DHT22;2776;51.046;6.772;2023-03-16T16:24:36;11.70;93.00
5508;DHT22;2776;51.046;6.772;2023-03-16T16:27:03;11.60;93.80
5508;DHT22;2776;51.046;6.772;2023-03-16T16:29:32;11.60;94.40